CYOW/YOW METAR and TAF weather

Enter ICAO airport designator
Station Type Date Time Source
CYOW METAR 2018/01/22 20:00 UTC NOAA

CYOW 222000Z 07017G25KT 8SM -SN OVC019 M05/M11 A3015 RMK SC8 SLP217


Station Type Date Time Source
CYOW Decoded METAR 2018/01/22 20:00 UTC NOAA

Ottawa Int'L. Ont., Canada (CYOW) 45-19N 075-40W 114M
Jan 22, 2018 - 03:00 PM EST / 2018.01.22 2000 UTC
Wind: from the ENE (070 degrees) at 20 MPH (17 KT) gusting to 29 MPH (25 KT):0
Visibility: 8 mile(s):0
Sky conditions: overcast
Weather: light snow
Temperature: 23 F (-5 C)
Windchill: 8 F (-13 C):1
Dew Point: 12 F (-11 C)
Relative Humidity: 62%
Pressure (altimeter): 30.15 in. Hg (1020 hPa)
ob: CYOW 222000Z 07017G25KT 8SM -SN OVC019 M05/M11 A3015 RMK SC8 SLP217
cycle: 20

Station Type Date Time Source
CYOW TAF 2018/01/22 18:42 UTC NOAA

TAF CYOW 221738Z 2218/2318 05012G22KT P6SM FEW015 BKN025 OVC060
TEMPO 2218/2220 5SM -SN BKN020 OVC025
FM222000 07012G22KT 3/4SM -SN BLSN OVC008
TEMPO 2220/2222 3SM -SN OVC012 PROB30 2223/2301 3SM -SNPL
FM230100 07012G22KT 11/2SM -PLSN OVC008
TEMPO 2301/2303 3SM -FZRA BR OVC008
FM230300 08015KT 21/2SM -FZRA -PL OVC006
FM230500 09010KT 11/2SM -FZRA BR OVC003
FM231600 08010KT 11/2SM -RA BR OVC003
RMK NXT FCST BY 222100Z


Example: see airport list